N973SE ENBR-ENZV
Flight info
| Callsign | N973SE |
|---|---|
| Flight time | 0h 42m |
| Altitude | 17000 |
| Route | BEGOD |
| Aircraft | C414/L-SBDFGRY/S |
Departure
| Time | 2026-04-25 18:27 |
|---|---|
| Airport | Bergen Airport, Flesland (ENBR) |
Arrival
| Time | 2026-04-25 19:10 |
|---|---|
| Airport | Stavanger Airport, Sola (ENZV) |
| Time | Latitude | Longitude | Altitude | Speed | Heading |
|---|---|---|---|---|---|
| 2026-04-25 18:06 | 60.29963 | 5.22657 | 165 ft | 0 kts | 285° |
| 2026-04-25 18:20 | 60.29962 | 5.22647 | 165 ft | 3 kts | 242° |
| 2026-04-25 18:20 | 60.29905 | 5.22635 | 164 ft | 13 kts | 178° |
| 2026-04-25 18:21 | 60.29814 | 5.22577 | 164 ft | 15 kts | 223° |
| 2026-04-25 18:21 | 60.29759 | 5.22390 | 163 ft | 16 kts | 258° |
| 2026-04-25 18:21 | 60.29742 | 5.22194 | 163 ft | 14 kts | 261° |
| 2026-04-25 18:21 | 60.29707 | 5.22024 | 163 ft | 13 kts | 204° |
| 2026-04-25 18:22 | 60.29615 | 5.22042 | 162 ft | 14 kts | 169° |
| 2026-04-25 18:22 | 60.29548 | 5.22064 | 162 ft | 15 kts | 172° |
| 2026-04-25 18:22 | 60.29398 | 5.22111 | 161 ft | 17 kts | 169° |
| 2026-04-25 18:22 | 60.29274 | 5.22155 | 160 ft | 19 kts | 173° |
| 2026-04-25 18:23 | 60.29140 | 5.22200 | 158 ft | 20 kts | 171° |
| 2026-04-25 18:23 | 60.28997 | 5.22257 | 157 ft | 22 kts | 171° |
| 2026-04-25 18:23 | 60.28843 | 5.22301 | 156 ft | 23 kts | 169° |
| 2026-04-25 18:23 | 60.28682 | 5.22353 | 154 ft | 24 kts | 171° |
| 2026-04-25 18:24 | 60.28520 | 5.22410 | 153 ft | 23 kts | 169° |
| 2026-04-25 18:24 | 60.28366 | 5.22462 | 152 ft | 22 kts | 171° |
| 2026-04-25 18:24 | 60.28219 | 5.22510 | 150 ft | 21 kts | 169° |
| 2026-04-25 18:24 | 60.28100 | 5.22539 | 149 ft | 12 kts | 197° |
| 2026-04-25 18:25 | 60.28061 | 5.22455 | 149 ft | 7 kts | 251° |
| 2026-04-25 18:25 | 60.28058 | 5.22434 | 148 ft | 0 kts | 253° |
| 2026-04-25 18:25 | 60.28050 | 5.22373 | 147 ft | 10 kts | 262° |
| 2026-04-25 18:26 | 60.28070 | 5.22251 | 147 ft | 8 kts | 345° |
| 2026-04-25 18:26 | 60.28108 | 5.22234 | 147 ft | 4 kts | 347° |
| 2026-04-25 18:26 | 60.28117 | 5.22230 | 147 ft | 0 kts | 347° |
| 2026-04-25 18:26 | 60.28201 | 5.22198 | 149 ft | 40 kts | 350° |
| 2026-04-25 18:27 | 60.28632 | 5.22045 | 217 ft | 77 kts | 345° |
| 2026-04-25 18:27 | 60.29168 | 5.21905 | 533 ft | 81 kts | 346° |
| 2026-04-25 18:27 | 60.29826 | 5.21757 | 809 ft | 100 kts | 352° |
| 2026-04-25 18:27 | 60.30512 | 5.21591 | 1383 ft | 98 kts | 348° |
| 2026-04-25 18:28 | 60.31175 | 5.21274 | 1963 ft | 97 kts | 348° |
| 2026-04-25 18:28 | 60.31837 | 5.21003 | 2525 ft | 97 kts | 351° |
| 2026-04-25 18:28 | 60.32503 | 5.20740 | 3029 ft | 98 kts | 351° |
| 2026-04-25 18:29 | 60.33796 | 5.19945 | 4007 ft | 111 kts | 306° |
| 2026-04-25 18:29 | 60.33770 | 5.18261 | 4460 ft | 127 kts | 270° |
| 2026-04-25 18:30 | 60.33014 | 5.13037 | 5691 ft | 131 kts | 263° |
| 2026-04-25 18:30 | 60.32716 | 5.11282 | 6129 ft | 131 kts | 263° |
| 2026-04-25 18:30 | 60.32419 | 5.09558 | 6512 ft | 132 kts | 262° |
| 2026-04-25 18:30 | 60.32116 | 5.07817 | 6897 ft | 132 kts | 262° |
| 2026-04-25 18:31 | 60.31797 | 5.06054 | 7287 ft | 133 kts | 263° |
| 2026-04-25 18:31 | 60.31475 | 5.04335 | 7683 ft | 133 kts | 263° |
| 2026-04-25 18:31 | 60.31135 | 5.02589 | 8054 ft | 134 kts | 262° |
| 2026-04-25 18:31 | 60.30788 | 5.00843 | 8426 ft | 135 kts | 263° |
| 2026-04-25 18:32 | 60.30426 | 4.99096 | 8804 ft | 137 kts | 260° |
| 2026-04-25 18:32 | 60.29696 | 4.97635 | 9144 ft | 165 kts | 211° |
| 2026-04-25 18:32 | 60.28517 | 4.97519 | 9499 ft | 175 kts | 172° |
| 2026-04-25 18:32 | 60.27307 | 4.97968 | 9864 ft | 178 kts | 171° |
| 2026-04-25 18:33 | 60.26078 | 4.98412 | 10195 ft | 181 kts | 172° |
| 2026-04-25 18:33 | 60.24835 | 4.98832 | 10520 ft | 183 kts | 173° |
| 2026-04-25 18:33 | 60.23572 | 4.99232 | 10850 ft | 184 kts | 174° |
| 2026-04-25 18:33 | 60.22295 | 4.99615 | 11178 ft | 186 kts | 174° |
| 2026-04-25 18:34 | 60.21007 | 4.99992 | 11505 ft | 189 kts | 175° |
| 2026-04-25 18:34 | 60.19695 | 5.00369 | 11831 ft | 190 kts | 175° |
| 2026-04-25 18:34 | 60.18365 | 5.00748 | 12159 ft | 192 kts | 175° |
| 2026-04-25 18:34 | 60.17033 | 5.01125 | 12490 ft | 194 kts | 175° |
| 2026-04-25 18:35 | 60.15687 | 5.01504 | 12814 ft | 196 kts | 176° |
| 2026-04-25 18:35 | 60.14325 | 5.01888 | 13138 ft | 199 kts | 176° |
| 2026-04-25 18:35 | 60.12948 | 5.02275 | 13461 ft | 201 kts | 176° |
| 2026-04-25 18:35 | 60.11560 | 5.02665 | 13786 ft | 202 kts | 176° |
| 2026-04-25 18:36 | 60.10174 | 5.03055 | 14092 ft | 204 kts | 176° |
| 2026-04-25 18:36 | 60.08759 | 5.03453 | 14379 ft | 206 kts | 177° |
| 2026-04-25 18:36 | 60.07337 | 5.03855 | 14668 ft | 207 kts | 176° |
| 2026-04-25 18:36 | 60.05901 | 5.04272 | 14957 ft | 209 kts | 177° |
| 2026-04-25 18:37 | 60.04435 | 5.04686 | 15252 ft | 210 kts | 177° |
| 2026-04-25 18:37 | 60.02982 | 5.05087 | 15545 ft | 212 kts | 178° |
| 2026-04-25 18:37 | 60.01517 | 5.05492 | 15844 ft | 213 kts | 178° |
| 2026-04-25 18:37 | 60.00045 | 5.05898 | 16143 ft | 215 kts | 178° |
| 2026-04-25 18:38 | 59.98562 | 5.06309 | 16449 ft | 216 kts | 178° |
| 2026-04-25 18:38 | 59.97068 | 5.06725 | 16745 ft | 218 kts | 178° |
| 2026-04-25 18:38 | 59.95562 | 5.07143 | 17045 ft | 219 kts | 179° |
| 2026-04-25 18:38 | 59.94007 | 5.07566 | 17134 ft | 234 kts | 179° |
| 2026-04-25 18:39 | 59.92334 | 5.08013 | 17155 ft | 249 kts | 178° |
| 2026-04-25 18:39 | 59.90571 | 5.08492 | 17158 ft | 261 kts | 177° |
| 2026-04-25 18:39 | 59.88738 | 5.09001 | 17155 ft | 270 kts | 177° |
| 2026-04-25 18:39 | 59.86855 | 5.09527 | 17157 ft | 275 kts | 177° |
| 2026-04-25 18:40 | 59.84940 | 5.10062 | 17157 ft | 279 kts | 177° |
| 2026-04-25 18:40 | 59.83003 | 5.10601 | 17157 ft | 282 kts | 177° |
| 2026-04-25 18:40 | 59.81063 | 5.11139 | 17159 ft | 283 kts | 177° |
| 2026-04-25 18:40 | 59.79100 | 5.11684 | 17158 ft | 285 kts | 177° |
| 2026-04-25 18:41 | 59.77133 | 5.12225 | 17157 ft | 285 kts | 177° |
| 2026-04-25 18:41 | 59.75161 | 5.12763 | 17157 ft | 286 kts | 177° |
| 2026-04-25 18:41 | 59.73188 | 5.13308 | 17162 ft | 286 kts | 176° |
| 2026-04-25 18:41 | 59.71212 | 5.13854 | 17160 ft | 286 kts | 177° |
| 2026-04-25 18:42 | 59.69236 | 5.14399 | 17158 ft | 286 kts | 177° |
| 2026-04-25 18:42 | 59.68595 | 5.14575 | 17159 ft | 286 kts | 176° |
| 2026-04-25 18:42 | 59.65954 | 5.15300 | 17156 ft | 286 kts | 177° |
| 2026-04-25 18:42 | 59.63314 | 5.16021 | 17158 ft | 286 kts | 177° |
| 2026-04-25 18:43 | 59.61335 | 5.16427 | 17156 ft | 285 kts | 181° |
| 2026-04-25 18:43 | 59.60004 | 5.16624 | 17158 ft | 285 kts | 181° |
| 2026-04-25 18:43 | 59.58027 | 5.16905 | 17156 ft | 285 kts | 181° |
| 2026-04-25 18:43 | 59.56049 | 5.17201 | 17157 ft | 285 kts | 181° |
| 2026-04-25 18:44 | 59.54073 | 5.17509 | 17158 ft | 285 kts | 181° |
| 2026-04-25 18:44 | 59.52100 | 5.17826 | 17156 ft | 285 kts | 181° |
| 2026-04-25 18:44 | 59.50121 | 5.18147 | 17155 ft | 285 kts | 181° |
| 2026-04-25 18:44 | 59.48147 | 5.18469 | 17153 ft | 285 kts | 181° |
| 2026-04-25 18:45 | 59.46171 | 5.18792 | 17153 ft | 285 kts | 181° |
| 2026-04-25 18:45 | 59.44198 | 5.19115 | 17151 ft | 285 kts | 181° |
| 2026-04-25 18:45 | 59.42220 | 5.19438 | 17152 ft | 285 kts | 181° |
| 2026-04-25 18:45 | 59.40247 | 5.19760 | 17152 ft | 285 kts | 181° |
| 2026-04-25 18:46 | 59.38279 | 5.19981 | 17154 ft | 283 kts | 185° |
| 2026-04-25 18:46 | 59.36316 | 5.20001 | 17153 ft | 282 kts | 187° |
| 2026-04-25 18:46 | 59.34353 | 5.19998 | 17156 ft | 282 kts | 187° |
| 2026-04-25 18:46 | 59.32388 | 5.20012 | 17155 ft | 282 kts | 186° |
| 2026-04-25 18:47 | 59.30425 | 5.20044 | 17153 ft | 282 kts | 186° |
| 2026-04-25 18:47 | 59.28461 | 5.20086 | 17156 ft | 282 kts | 186° |
| 2026-04-25 18:47 | 59.26497 | 5.20134 | 17153 ft | 282 kts | 186° |
| 2026-04-25 18:47 | 59.24528 | 5.20184 | 17153 ft | 282 kts | 186° |
| 2026-04-25 18:48 | 59.22558 | 5.20246 | 17144 ft | 283 kts | 185° |
| 2026-04-25 18:48 | 59.20584 | 5.20314 | 16907 ft | 284 kts | 186° |
| 2026-04-25 18:48 | 59.18612 | 5.20365 | 16697 ft | 283 kts | 186° |
| 2026-04-25 18:48 | 59.16675 | 5.20409 | 16484 ft | 281 kts | 186° |
| 2026-04-25 18:49 | 59.14721 | 5.20452 | 16263 ft | 280 kts | 186° |
| 2026-04-25 18:49 | 59.12781 | 5.20497 | 16040 ft | 278 kts | 186° |
| 2026-04-25 18:49 | 59.10853 | 5.20544 | 15827 ft | 277 kts | 185° |
| 2026-04-25 18:49 | 59.08932 | 5.20899 | 15590 ft | 281 kts | 165° |
| 2026-04-25 18:50 | 59.07136 | 5.22367 | 15372 ft | 280 kts | 156° |
| 2026-04-25 18:50 | 59.05348 | 5.23858 | 15156 ft | 279 kts | 157° |
| 2026-04-25 18:50 | 59.03561 | 5.25310 | 14956 ft | 277 kts | 157° |
| 2026-04-25 18:50 | 59.01789 | 5.26744 | 14675 ft | 275 kts | 157° |
| 2026-04-25 18:51 | 59.00025 | 5.28169 | 14345 ft | 274 kts | 157° |
| 2026-04-25 18:51 | 58.98862 | 5.29107 | 14135 ft | 272 kts | 157° |
| 2026-04-25 18:51 | 58.96531 | 5.30988 | 13687 ft | 270 kts | 157° |
| 2026-04-25 18:51 | 58.94809 | 5.32375 | 13281 ft | 267 kts | 157° |
| 2026-04-25 18:52 | 58.93104 | 5.33747 | 12891 ft | 264 kts | 157° |
| 2026-04-25 18:52 | 58.91418 | 5.35102 | 12509 ft | 261 kts | 157° |
| 2026-04-25 18:52 | 58.89753 | 5.36438 | 12136 ft | 258 kts | 157° |
| 2026-04-25 18:52 | 58.88105 | 5.37761 | 11771 ft | 255 kts | 156° |
| 2026-04-25 18:53 | 58.86473 | 5.39068 | 11411 ft | 252 kts | 156° |
| 2026-04-25 18:53 | 58.84859 | 5.40360 | 11061 ft | 250 kts | 156° |
| 2026-04-25 18:53 | 58.83259 | 5.41640 | 10723 ft | 247 kts | 156° |
| 2026-04-25 18:53 | 58.81675 | 5.42906 | 10391 ft | 245 kts | 156° |
| 2026-04-25 18:54 | 58.78557 | 5.45393 | 9708 ft | 240 kts | 156° |
| 2026-04-25 18:54 | 58.77022 | 5.46616 | 9371 ft | 237 kts | 156° |
| 2026-04-25 18:54 | 58.75507 | 5.47821 | 9029 ft | 234 kts | 156° |
| 2026-04-25 18:55 | 58.74010 | 5.49007 | 8697 ft | 231 kts | 156° |
| 2026-04-25 18:55 | 58.72618 | 5.50460 | 8356 ft | 225 kts | 142° |
| 2026-04-25 18:55 | 58.71225 | 5.51830 | 8014 ft | 225 kts | 153° |
| 2026-04-25 18:55 | 58.69803 | 5.53036 | 7697 ft | 222 kts | 154° |
| 2026-04-25 18:56 | 58.68390 | 5.54196 | 7401 ft | 219 kts | 155° |
| 2026-04-25 18:56 | 58.66992 | 5.55327 | 7103 ft | 217 kts | 155° |
| 2026-04-25 18:56 | 58.65622 | 5.56417 | 6804 ft | 215 kts | 155° |
| 2026-04-25 18:56 | 58.64456 | 5.58033 | 6464 ft | 203 kts | 117° |
| 2026-04-25 18:57 | 58.63973 | 5.60478 | 6134 ft | 193 kts | 97° |
| 2026-04-25 18:57 | 58.63644 | 5.62966 | 5810 ft | 191 kts | 95° |
| 2026-04-25 18:57 | 58.63349 | 5.65445 | 5485 ft | 190 kts | 94° |
| 2026-04-25 18:57 | 58.63157 | 5.67116 | 5269 ft | 189 kts | 95° |
| 2026-04-25 18:58 | 58.62793 | 5.70366 | 4866 ft | 187 kts | 94° |
| 2026-04-25 18:58 | 58.62259 | 5.75229 | 4241 ft | 186 kts | 94° |
| 2026-04-25 18:58 | 58.61999 | 5.77643 | 3935 ft | 184 kts | 93° |
| 2026-04-25 18:59 | 58.61474 | 5.82373 | 3448 ft | 176 kts | 94° |
| 2026-04-25 18:59 | 58.61592 | 5.86314 | 3336 ft | 132 kts | 24° |
| 2026-04-25 19:00 | 58.62883 | 5.84559 | 3210 ft | 136 kts | 308° |
| 2026-04-25 19:00 | 58.63350 | 5.82925 | 3080 ft | 142 kts | 306° |
| 2026-04-25 19:01 | 58.64259 | 5.79503 | 2795 ft | 144 kts | 304° |
| 2026-04-25 19:01 | 58.64702 | 5.77776 | 2666 ft | 145 kts | 304° |
| 2026-04-25 19:01 | 58.65145 | 5.76021 | 2541 ft | 147 kts | 304° |
| 2026-04-25 19:01 | 58.65593 | 5.74235 | 2411 ft | 149 kts | 304° |
| 2026-04-25 19:02 | 58.66490 | 5.70645 | 2139 ft | 148 kts | 304° |
| 2026-04-25 19:02 | 58.67059 | 5.69084 | 2068 ft | 139 kts | 319° |
| 2026-04-25 19:02 | 58.67723 | 5.67770 | 2027 ft | 135 kts | 321° |
| 2026-04-25 19:03 | 58.68805 | 5.66941 | 2006 ft | 124 kts | 347° |
| 2026-04-25 19:03 | 58.70183 | 5.66282 | 1996 ft | 122 kts | 347° |
| 2026-04-25 19:03 | 58.71003 | 5.65913 | 2005 ft | 121 kts | 348° |
| 2026-04-25 19:04 | 58.72645 | 5.65300 | 2003 ft | 120 kts | 351° |
| 2026-04-25 19:04 | 58.73471 | 5.65054 | 2005 ft | 120 kts | 352° |
| 2026-04-25 19:05 | 58.75135 | 5.64625 | 1986 ft | 121 kts | 353° |
| 2026-04-25 19:05 | 58.76797 | 5.64270 | 2000 ft | 120 kts | 353° |
| 2026-04-25 19:05 | 58.77597 | 5.64119 | 1987 ft | 112 kts | 354° |
| 2026-04-25 19:06 | 58.78388 | 5.64038 | 1795 ft | 110 kts | 356° |
| 2026-04-25 19:06 | 58.79806 | 5.64026 | 1526 ft | 99 kts | 357° |
| 2026-04-25 19:06 | 58.80499 | 5.64018 | 1387 ft | 99 kts | 356° |
| 2026-04-25 19:07 | 58.81826 | 5.63971 | 1161 ft | 95 kts | 355° |
| 2026-04-25 19:07 | 58.82522 | 5.63937 | 948 ft | 102 kts | 355° |
| 2026-04-25 19:08 | 58.83693 | 5.63930 | 762 ft | 76 kts | 353° |
| 2026-04-25 19:08 | 58.84240 | 5.63905 | 644 ft | 81 kts | 352° |
| 2026-04-25 19:09 | 58.85828 | 5.63831 | 362 ft | 70 kts | 352° |
| 2026-04-25 19:09 | 58.86163 | 5.63805 | 288 ft | 76 kts | 353° |
| 2026-04-25 19:09 | 58.87450 | 5.63794 | 50 ft | 78 kts | 353° |
| 2026-04-25 19:10 | 58.87903 | 5.63767 | 26 ft | 52 kts | 356° |
| 2026-04-25 19:10 | 58.88199 | 5.63758 | 26 ft | 36 kts | 4° |
| 2026-04-25 19:10 | 58.88418 | 5.63773 | 25 ft | 29 kts | 1° |
| 2026-04-25 19:10 | 58.88652 | 5.63759 | 20 ft | 37 kts | 356° |
| 2026-04-25 19:11 | 58.88909 | 5.63743 | 16 ft | 35 kts | 359° |
| 2026-04-25 19:11 | 58.89146 | 5.63737 | 16 ft | 32 kts | 358° |
| 2026-04-25 19:11 | 58.89326 | 5.63718 | 14 ft | 18 kts | 321° |
| 2026-04-25 19:11 | 58.89345 | 5.63497 | 13 ft | 7 kts | 272° |
| 2026-04-25 19:12 | 58.89346 | 5.63495 | 13 ft | 0 kts | 272° |
| 2026-04-25 19:12 | 58.89346 | 5.63478 | 13 ft | 5 kts | 270° |
| 2026-04-25 19:13 | 58.89344 | 5.63391 | 13 ft | 7 kts | 269° |
| 2026-04-25 19:13 | 58.89346 | 5.63294 | 13 ft | 7 kts | 275° |
| 2026-04-25 19:13 | 58.89338 | 5.63238 | 13 ft | 5 kts | 160° |
| 2026-04-25 19:13 | 58.89334 | 5.63246 | 13 ft | 0 kts | 118° |